Terminal Aerodrome Forecast
Issued by NWS Indianapolis, IN

Home | Current Version | Previous Version | Text Only | Print | Product List | Glossary On
Versions: 1 2 3 4 5 6 7 8 9 10 11 12 13 14 15 16 17 18 19 20 21 22 23 24 25 26 27 28
000
FTUS43 KIND 100520
TAFIND
TAF
KIND 100520Z 1006/1112 28004KT P6SM SCT040
     FM102100 22005KT P6SM BKN070
     FM110000 16004KT P6SM OVC060=

USA.gov is the U.S. government's official web portal to all federal, state and local government web resources and services.